Main page
METAR-TAF:

METAR-TAF

Airports :

Shuttle Landing Facility

Kennedy Space Center, Florida, United States

latitude: 28-37N, longitude: 080-43W, elevation: 10 ft

Current weather observation

The report was made 33 minutes ago, at 10:22 UTC
Wind 3 mph from the South
Temperature 72°F
Humidity 94%
Pressure 30.03 in. Hg
Visibility: 6 miles
Few clouds at a height of 1700 ft
mist

METAR: KTTS 281022Z AUTO 18003KT 6SM BR FEW017 22/21 A3003 RMK AO2 DZB21E21 SLP173 $

Time: 06:55 (10:55 UTC)


TAF: missing

Weather observations and forecasts of more than 4000 airports (METAR and TAF reports).

The available stations are represented by yellow and red dots on the map.

Hover mouse over dot to see the name of the station.

Then click to see weather observations and forecasts.

To change the map : click on the green buttons with a black cross to zoom in, on the green button with a dash to zoom out, or on the green arrows for adjacent maps.


METAR-TAF: